Time;durP1;ratioP1;P1;durP2;ratioP2;P2;SDS_P1;SDS_P2;PMS_P1;PMS_P2;Temp;Humidity;BMP_temperature;BMP_pressure;BME280_temperature;BME280_humidity;BME280_pressure;Samples;Min_cycle;Max_cycle;Signal;HPM_P1;HPM_P2
2021/11/15 00:02:17;;;;;;;3.00;1.98;;;;;;;26.22;33.16;97013.72;5061643;28;20075;-35
2021/11/15 00:04:42;;;;;;;3.03;2.00;;;;;;;26.21;33.22;97014.66;5043098;28;20052;-36
2021/11/15 00:07:08;;;;;;;1.83;1.60;;;;;;;26.22;33.10;97013.72;5046138;28;20028;-40
2021/11/15 00:09:33;;;;;;;1.70;1.60;;;;;;;26.19;33.09;97003.34;5045756;28;20203;-35
2021/11/15 00:12:00;;;;;;;1.80;1.50;;;;;;;26.21;33.20;97009.38;5047286;28;20675;-33
2021/11/15 00:14:26;;;;;;;1.98;1.70;;;;;;;26.17;33.16;96999.97;5045538;28;20085;-33
2021/11/15 00:16:51;;;;;;;2.53;1.80;;;;;;;26.21;33.23;97007.59;5062143;28;20033;-34
2021/11/15 00:19:17;;;;;;;1.67;1.40;;;;;;;26.20;33.17;97007.69;5048642;28;20187;-35
2021/11/15 00:21:42;;;;;;;2.72;1.73;;;;;;;26.21;33.12;97004.13;5029792;28;20037;-32
2021/11/15 00:24:08;;;;;;;2.92;1.70;;;;;;;26.21;33.16;97006.75;5040025;28;20048;-36
2021/11/15 00:26:33;;;;;;;5.25;1.90;;;;;;;26.21;33.07;97001.50;5038281;28;20047;-36
2021/11/15 00:28:58;;;;;;;2.65;1.88;;;;;;;26.20;33.17;97003.28;5039500;28;20353;-34
2021/11/15 00:31:24;;;;;;;1.85;1.65;;;;;;;26.20;33.21;96999.81;5037578;28;20040;-37
2021/11/15 00:33:50;;;;;;;1.63;1.50;;;;;;;26.20;33.07;96999.81;5037270;28;20044;-35
2021/11/15 00:36:15;;;;;;;2.30;1.55;;;;;;;26.20;33.06;96999.81;5055306;28;20036;-34
2021/11/15 00:38:41;;;;;;;2.08;1.75;;;;;;;26.19;33.08;97004.22;5035308;28;20036;-34
2021/11/15 00:41:06;;;;;;;2.70;2.08;;;;;;;26.19;33.26;97001.59;5035638;28;20020;-33
2021/11/15 00:43:32;;;;;;;2.17;1.80;;;;;;;26.19;33.07;97005.97;5036313;28;20083;-32
2021/11/15 00:45:57;;;;;;;2.00;1.90;;;;;;;26.19;33.27;97008.59;5035574;28;20078;-35
2021/11/15 00:48:23;;;;;;;2.22;1.73;;;;;;;26.19;33.09;97016.47;5033904;28;20142;-31
2021/11/15 00:50:48;;;;;;;3.08;1.70;;;;;;;26.19;33.05;97009.47;5037668;28;20527;-35
2021/11/15 00:53:14;;;;;;;1.85;1.52;;;;;;;26.19;33.08;97013.84;5036537;28;20067;-32
2021/11/15 00:55:39;;;;;;;2.65;1.73;;;;;;;26.18;33.13;97013.03;5033262;28;20017;-34
2021/11/15 00:58:06;;;;;;;1.98;1.50;;;;;;;26.17;33.01;97006.09;4999678;28;20040;-32
2021/11/15 01:00:32;;;;;;;2.03;1.48;;;;;;;26.18;33.26;97012.16;5028748;28;20048;-32
2021/11/15 01:02:58;;;;;;;1.70;1.50;;;;;;;26.18;33.13;97013.03;5022282;28;20768;-32
2021/11/15 01:05:23;;;;;;;1.92;1.60;;;;;;;26.17;33.10;97005.22;5019379;28;20035;-32
2021/11/15 01:07:49;;;;;;;2.28;1.77;;;;;;;26.18;33.13;97012.16;5019373;28;20021;-33
2021/11/15 01:10:15;;;;;;;2.63;1.50;;;;;;;26.18;33.17;97012.16;5019546;28;20626;-33
2021/11/15 01:12:41;;;;;;;2.00;1.80;;;;;;;26.17;33.23;97013.97;5019020;28;20032;-32
2021/11/15 01:15:08;;;;;;;2.70;2.00;;;;;;;26.18;33.13;97014.78;5033874;28;20029;-31
2021/11/15 01:17:34;;;;;;;1.75;1.35;;;;;;;26.18;33.05;97014.78;5033193;28;20520;-35
2021/11/15 01:19:59;;;;;;;2.17;1.95;;;;;;;26.16;33.10;97017.50;5038711;28;20032;-34
2021/11/15 01:22:25;;;;;;;2.72;1.80;;;;;;;26.17;33.13;97020.97;5040828;28;20036;-34
2021/11/15 01:24:50;;;;;;;2.00;1.80;;;;;;;26.17;33.07;97020.97;5039608;28;20156;-36
2021/11/15 01:27:16;;;;;;;2.65;1.60;;;;;;;26.16;33.04;97025.38;5036940;28;20024;-31
2021/11/15 01:29:41;;;;;;;1.73;1.63;;;;;;;26.17;33.11;97013.09;5039423;28;20133;-35
2021/11/15 01:32:06;;;;;;;1.90;1.60;;;;;;;26.17;33.12;97015.72;5036547;28;20037;-33
2021/11/15 01:34:32;;;;;;;2.05;1.67;;;;;;;26.16;33.09;97021.91;5037451;28;20032;-32
2021/11/15 01:36:57;;;;;;;1.75;1.55;;;;;;;26.16;33.12;97014.03;5053113;28;20040;-34
2021/11/15 01:39:23;;;;;;;2.20;2.00;;;;;;;26.15;33.14;97007.91;5045519;28;20029;-33
2021/11/15 01:41:50;;;;;;;2.00;1.80;;;;;;;26.16;33.10;97003.53;5044761;28;20031;-36
2021/11/15 01:44:15;;;;;;;3.10;1.88;;;;;;;26.16;32.94;97003.53;5047143;28;20647;-35
2021/11/15 01:46:41;;;;;;;1.83;1.58;;;;;;;26.15;33.13;96992.16;5042399;28;20047;-38
2021/11/15 01:49:06;;;;;;;2.53;1.85;;;;;;;26.15;33.11;97005.28;5036187;28;20039;-35
2021/11/15 01:51:32;;;;;;;1.90;1.70;;;;;;;26.15;32.99;97001.81;5037390;28;20474;-35
2021/11/15 01:53:58;;;;;;;2.17;1.60;;;;;;;26.15;33.07;96999.19;5072567;27;20029;-36
2021/11/15 01:56:23;;;;;;;2.42;1.83;;;;;;;26.14;33.15;97002.75;5041701;28;20558;-32
2021/11/15 01:58:49;;;;;;;2.00;1.80;;;;;;;26.14;32.96;97006.22;5072563;27;20029;-37
2021/11/15 02:01:14;;;;;;;1.95;1.70;;;;;;;26.14;33.18;97008.00;5044245;28;20032;-38
2021/11/15 02:03:39;;;;;;;2.50;2.05;;;;;;;26.14;33.06;97005.38;5037962;28;20082;-38
2021/11/15 02:06:06;;;;;;;2.67;2.00;;;;;;;26.14;32.96;97011.47;5040541;28;23698;-31
2021/11/15 02:08:31;;;;;;;2.30;1.65;;;;;;;26.13;32.97;97006.31;5044638;28;20441;-31
2021/11/15 02:10:57;;;;;;;2.67;2.03;;;;;;;26.13;33.00;97008.94;5050050;28;20163;-35
2021/11/15 02:13:24;;;;;;;10.38;3.42;;;;;;;26.12;33.23;97004.63;5045622;28;20484;-31
2021/11/15 02:15:51;;;;;;;2.95;2.20;;;;;;;26.10;33.22;97005.50;5044416;28;20110;-34
2021/11/15 02:18:17;;;;;;;2.15;1.90;;;;;;;26.09;33.30;97003.81;5046748;28;20029;-36
2021/11/15 02:20:43;;;;;;;2.55;1.77;;;;;;;26.09;33.28;97003.81;5044925;28;20062;-32
2021/11/15 02:23:09;;;;;;;3.08;2.08;;;;;;;26.10;33.05;96999.44;5042981;28;20024;-32
2021/11/15 02:25:34;;;;;;;3.53;2.30;;;;;;;26.09;33.38;96985.44;5046316;28;20037;-36
2021/11/15 02:28:00;;;;;;;5.30;2.20;;;;;;;26.09;33.27;96984.63;5048082;28;20029;-35
2021/11/15 02:30:26;;;;;;;4.55;1.90;;;;;;;26.09;33.17;96980.19;5047731;28;20400;-33
2021/11/15 02:32:51;;;;;;;2.33;1.65;;;;;;;26.09;33.27;96979.34;5046752;28;20024;-34
2021/11/15 02:35:17;;;;;;;2.40;2.08;;;;;;;26.09;33.24;96985.44;5046310;28;20584;-36
2021/11/15 02:37:43;;;;;;;3.15;1.80;;;;;;;26.09;33.16;96982.81;5045581;28;20656;-35
2021/11/15 02:40:09;;;;;;;3.80;1.83;;;;;;;26.07;33.23;96979.44;5045708;28;20029;-34
2021/11/15 02:42:35;;;;;;;2.22;1.88;;;;;;;26.09;33.06;96976.72;5045064;28;20478;-34
2021/11/15 02:45:01;;;;;;;2.97;1.90;;;;;;;26.08;33.08;96975.88;5043089;28;20089;-35
2021/11/15 02:47:26;;;;;;;2.58;2.00;;;;;;;26.08;33.16;96986.38;5060393;28;20116;-36
2021/11/15 02:49:52;;;;;;;2.42;1.73;;;;;;;26.07;33.08;96984.69;5037147;28;20037;-31
2021/11/15 02:52:17;;;;;;;4.13;1.90;;;;;;;26.07;33.13;96987.31;5042523;28;20116;-35
2021/11/15 02:54:44;;;;;;;4.15;1.58;;;;;;;26.08;32.97;96988.13;5043265;28;20039;-33
2021/11/15 02:57:19;;;;;;;2.13;1.75;;;;;;;26.07;32.97;96989.94;5040402;28;20086;-36
2021/11/15 02:59:45;;;;;;;3.47;2.05;;;;;;;26.07;33.15;96989.94;5040336;28;20029;-34
2021/11/15 03:02:11;;;;;;;4.35;1.88;;;;;;;26.07;33.00;96984.69;5043798;28;20024;-33
2021/11/15 03:04:37;;;;;;;2.15;1.88;;;;;;;26.07;33.11;96989.94;5047604;28;20032;-36
2021/11/15 03:07:03;;;;;;;1.70;1.60;;;;;;;26.07;33.16;96991.69;5045410;28;20523;-38
2021/11/15 03:09:28;;;;;;;2.45;1.90;;;;;;;26.06;32.95;96987.38;5043044;28;20036;-35
2021/11/15 03:11:54;;;;;;;2.17;1.98;;;;;;;26.06;32.90;96983.00;5044907;28;20060;-33
2021/11/15 03:14:19;;;;;;;2.85;2.10;;;;;;;26.06;32.95;96992.63;5047767;28;20035;-31
2021/11/15 03:16:45;;;;;;;2.38;1.80;;;;;;;26.05;33.09;96991.78;5042326;28;20588;-35
2021/11/15 03:19:10;;;;;;;2.55;1.77;;;;;;;26.05;32.96;96989.16;5041879;28;20039;-34
2021/11/15 03:21:36;;;;;;;1.85;1.70;;;;;;;26.05;32.92;96986.53;5047889;28;20024;-35
2021/11/15 03:24:01;;;;;;;2.35;1.75;;;;;;;26.05;33.17;96977.81;5042034;28;20029;-36
2021/11/15 03:26:27;;;;;;;2.85;1.80;;;;;;;26.04;33.05;96990.09;5042952;28;20083;-35
2021/11/15 03:28:53;;;;;;;3.60;1.75;;;;;;;26.04;32.93;96984.84;5045966;28;20484;-34
2021/11/15 03:31:24;;;;;;;1.55;1.42;;;;;;;26.04;32.99;96987.47;5043853;28;20021;-34
2021/11/15 03:33:50;;;;;;;1.93;1.63;;;;;;;26.05;33.07;96985.69;5043944;28;20028;-33
2021/11/15 03:36:16;;;;;;;1.98;1.75;;;;;;;26.05;33.04;96989.16;5038063;28;20029;-35
2021/11/15 03:38:41;;;;;;;1.70;1.60;;;;;;;26.04;32.97;96984.84;5042820;28;20060;-38
2021/11/15 03:41:07;;;;;;;1.90;1.70;;;;;;;26.05;32.98;96985.69;5047163;28;20033;-34
2021/11/15 03:43:32;;;;;;;2.25;1.77;;;;;;;26.04;32.94;96984.84;5076702;28;20472;-34
2021/11/15 03:45:58;;;;;;;1.85;1.67;;;;;;;26.03;32.83;96988.41;5043343;28;20249;-34
2021/11/15 03:48:24;;;;;;;3.90;1.65;;;;;;;26.04;32.92;96979.59;5057635;28;20031;-37
2021/11/15 03:50:54;;;;;;;3.08;1.85;;;;;;;26.03;32.93;96983.16;5034837;28;20029;-35
2021/11/15 03:53:20;;;;;;;2.85;1.88;;;;;;;26.03;32.97;96985.78;5043607;28;20036;-38
2021/11/15 03:55:46;;;;;;;2.55;1.73;;;;;;;26.02;32.98;96981.44;5048135;28;20032;-33
2021/11/15 03:58:11;;;;;;;3.65;1.90;;;;;;;26.02;32.99;96986.69;5035450;28;20484;-35
2021/11/15 04:00:39;;;;;;;1.95;1.77;;;;;;;26.02;32.95;96986.69;5045049;28;20032;-36
2021/11/15 04:03:08;;;;;;;1.98;1.42;;;;;;;26.01;32.82;96990.22;5044377;28;20020;-35
2021/11/15 04:05:37;;;;;;;2.03;1.63;;;;;;;26.01;32.76;96990.22;5052271;28;20104;-33
2021/11/15 04:08:04;;;;;;;1.70;1.60;;;;;;;26.01;32.89;96990.22;5045219;28;20024;-37
2021/11/15 04:10:40;;;;;;;1.90;1.70;;;;;;;25.99;32.74;96986.84;5046603;28;20699;-37
2021/11/15 04:13:10;;;;;;;1.92;1.70;;;;;;;25.98;32.85;96985.16;5044648;28;20048;-37
2021/11/15 04:15:36;;;;;;;1.92;1.65;;;;;;;25.93;32.72;96977.50;5043447;28;20112;-36
2021/11/15 04:18:02;;;;;;;3.28;1.92;;;;;;;25.98;32.94;96984.28;5043510;28;20502;-35
2021/11/15 04:20:28;;;;;;;1.60;1.50;;;;;;;25.97;32.78;96980.81;5039307;28;20040;-34
2021/11/15 04:22:53;;;;;;;7.55;2.00;;;;;;;25.98;32.68;96979.03;5044484;28;20035;-35
2021/11/15 04:25:18;;;;;;;2.08;1.70;;;;;;;25.97;32.78;96978.19;5043306;28;20045;-31
2021/11/15 04:27:44;;;;;;;3.20;1.92;;;;;;;25.97;32.94;96983.44;5046025;28;20447;-32
2021/11/15 04:30:12;;;;;;;1.75;1.50;;;;;;;25.96;32.77;96979.97;5044670;28;20028;-36
2021/11/15 04:32:38;;;;;;;2.22;1.70;;;;;;;25.96;32.71;96981.75;5044433;28;20116;-34
2021/11/15 04:35:05;;;;;;;2.17;1.80;;;;;;;25.96;32.87;96976.50;5046412;28;20029;-37
2021/11/15 04:37:31;;;;;;;2.17;1.60;;;;;;;25.96;32.83;96982.59;5044731;28;20421;-35
2021/11/15 04:39:57;;;;;;;1.85;1.55;;;;;;;25.95;32.80;96980.91;5046632;28;20029;-34
2021/11/15 04:42:23;;;;;;;2.13;1.92;;;;;;;25.95;32.68;96977.44;5039937;28;20028;-30
2021/11/15 04:44:48;;;;;;;1.67;1.40;;;;;;;25.96;32.86;96976.50;5038908;28;20025;-32
2021/11/15 04:47:14;;;;;;;1.85;1.63;;;;;;;25.96;32.82;96968.63;5044418;28;20041;-32
2021/11/15 04:49:39;;;;;;;2.35;1.83;;;;;;;25.94;32.70;96973.94;5045464;28;20032;-34
2021/11/15 04:52:06;;;;;;;1.90;1.70;;;;;;;25.95;32.60;96973.03;5048770;28;20091;-38
2021/11/15 04:54:31;;;;;;;1.52;1.42;;;;;;;25.95;32.84;96969.56;5049145;28;20629;-36
2021/11/15 04:56:57;;;;;;;2.85;1.73;;;;;;;25.96;32.75;96981.75;5051171;28;20032;-34
2021/11/15 04:59:23;;;;;;;3.30;2.10;;;;;;;25.95;32.73;96970.41;5052408;28;20032;-37
2021/11/15 05:01:48;;;;;;;1.73;1.45;;;;;;;25.95;32.83;96980.06;5046284;28;20028;-36
2021/11/15 05:04:13;;;;;;;2.30;1.55;;;;;;;25.94;32.99;96975.75;5047267;28;20071;-35
2021/11/15 05:06:39;;;;;;;1.77;1.50;;;;;;;25.94;32.89;96978.38;5043710;28;20029;-34
2021/11/15 05:09:04;;;;;;;1.80;1.55;;;;;;;25.94;32.88;96975.75;5049171;28;20040;-34
2021/11/15 05:11:30;;;;;;;1.73;1.55;;;;;;;25.93;32.92;96972.25;5048733;28;20024;-36
2021/11/15 05:13:55;;;;;;;1.98;1.77;;;;;;;25.93;32.84;96972.25;5049487;28;20025;-36
2021/11/15 05:16:21;;;;;;;2.35;1.42;;;;;;;25.93;32.80;96981.91;5050480;28;20028;-33
2021/11/15 05:18:46;;;;;;;2.42;1.73;;;;;;;25.94;32.93;96973.09;5046382;28;20028;-35
2021/11/15 05:21:11;;;;;;;1.52;1.42;;;;;;;25.94;33.00;96967.84;5050351;28;20032;-36
2021/11/15 05:23:39;;;;;;;2.00;1.60;;;;;;;25.94;32.81;96973.94;5049932;28;20028;-33
2021/11/15 05:26:05;;;;;;;1.73;1.50;;;;;;;25.93;32.89;96976.66;5044880;28;20033;-29
2021/11/15 05:28:30;;;;;;;1.67;1.58;;;;;;;25.93;32.81;96977.50;5043313;28;20063;-36
2021/11/15 05:30:56;;;;;;;2.00;1.70;;;;;;;25.93;32.94;96972.25;5041102;28;20039;-38
2021/11/15 05:33:21;;;;;;;1.80;1.70;;;;;;;25.93;32.84;96971.41;5050752;28;20944;-32
2021/11/15 05:35:46;;;;;;;2.10;1.63;;;;;;;25.92;32.91;96972.31;5051226;28;20043;-34
2021/11/15 05:38:12;;;;;;;2.25;1.70;;;;;;;25.92;32.83;96975.81;5046062;28;20025;-33
2021/11/15 05:40:37;;;;;;;1.60;1.50;;;;;;;25.91;32.82;96968.88;5047230;28;20020;-34
2021/11/15 05:43:03;;;;;;;2.03;1.63;;;;;;;25.92;33.02;96980.19;5044461;28;20679;-33
2021/11/15 05:45:28;;;;;;;1.98;1.70;;;;;;;25.93;32.78;96976.66;5042377;28;20463;-36
2021/11/15 05:47:54;;;;;;;1.85;1.65;;;;;;;25.93;32.88;96979.28;5043061;28;20043;-35
2021/11/15 05:50:20;;;;;;;1.83;1.52;;;;;;;25.93;33.01;96981.91;5050067;28;20055;-33
2021/11/15 05:52:45;;;;;;;1.60;1.40;;;;;;;25.92;32.98;96980.19;5047513;28;20074;-35
2021/11/15 05:55:18;;;;;;;2.08;1.52;;;;;;;25.92;33.06;96991.56;5048432;28;20523;-35
2021/11/15 05:57:43;;;;;;;1.80;1.70;;;;;;;25.92;33.02;97002.06;5040484;28;20568;-33
2021/11/15 06:00:11;;;;;;;2.38;1.98;;;;;;;25.92;32.84;96995.94;5021630;28;20032;-32
2021/11/15 06:02:37;;;;;;;1.98;1.75;;;;;;;25.91;32.97;96996.88;5048780;28;20170;-34
2021/11/15 06:05:04;;;;;;;1.95;1.55;;;;;;;25.91;33.13;96994.25;5028896;28;20086;-33
2021/11/15 06:07:29;;;;;;;1.92;1.55;;;;;;;25.92;33.12;97001.22;5036701;28;20088;-33
2021/11/15 06:09:55;;;;;;;2.70;1.67;;;;;;;25.88;33.11;96995.25;5045706;28;20659;-30
2021/11/15 06:12:20;;;;;;;1.63;1.33;;;;;;;25.92;33.00;96995.94;5027368;28;20108;-38
2021/11/15 06:14:45;;;;;;;2.20;1.52;;;;;;;25.91;33.07;96995.13;5046234;28;20024;-35
2021/11/15 06:17:11;;;;;;;1.88;1.70;;;;;;;25.91;32.96;97002.13;5047103;28;20038;-34
2021/11/15 06:19:36;;;;;;;1.40;1.30;;;;;;;25.91;32.98;97005.63;5045499;28;20025;-35
2021/11/15 06:22:02;;;;;;;1.60;1.50;;;;;;;25.91;33.08;96999.50;5039284;28;20094;-35
2021/11/15 06:24:28;;;;;;;1.73;1.63;;;;;;;25.90;33.03;97003.91;5078837;28;20739;-32
2021/11/15 06:26:53;;;;;;;1.65;1.35;;;;;;;25.91;33.06;97007.38;5038311;28;20172;-32
2021/11/15 06:29:19;;;;;;;1.80;1.70;;;;;;;25.92;33.02;97017.81;5024633;28;20467;-37
2021/11/15 06:31:44;;;;;;;1.75;1.38;;;;;;;25.91;33.06;97010.88;5042040;28;20645;-32
2021/11/15 06:34:09;;;;;;;1.65;1.55;;;;;;;25.91;32.96;97010.00;5044374;28;20479;-33
2021/11/15 06:36:35;;;;;;;1.80;1.50;;;;;;;25.91;33.05;97010.00;5044564;28;20035;-37
2021/11/15 06:39:00;;;;;;;2.38;1.58;;;;;;;25.90;33.06;97008.31;5045378;28;20036;-40
2021/11/15 06:41:26;;;;;;;1.58;1.33;;;;;;;25.90;33.00;97011.78;5045821;28;20978;-33
2021/11/15 06:43:51;;;;;;;5.20;1.63;;;;;;;25.91;33.19;97015.25;5047272;28;20170;-34
2021/11/15 06:46:17;;;;;;;2.03;1.50;;;;;;;25.90;33.00;97013.56;5047707;28;20116;-35
2021/11/15 06:48:43;;;;;;;3.92;2.45;;;;;;;25.90;33.29;97022.28;5042682;28;20144;-33
2021/11/15 06:51:12;;;;;;;2.92;1.95;;;;;;;25.90;33.17;97018.81;5046970;28;20020;-35
2021/11/15 06:53:38;;;;;;;2.38;1.70;;;;;;;25.90;33.30;97018.81;5048194;28;20515;-34
2021/11/15 06:56:04;;;;;;;2.17;1.70;;;;;;;25.90;33.34;97024.06;5051359;28;20418;-33
2021/11/15 06:58:29;;;;;;;2.80;1.60;;;;;;;25.89;33.27;97017.13;5062649;28;20070;-34
2021/11/15 07:00:55;;;;;;;3.13;1.38;;;;;;;25.90;33.18;97018.81;5043745;28;20024;-33
2021/11/15 07:03:21;;;;;;;1.83;1.42;;;;;;;25.90;33.36;97024.06;5044681;28;20025;-33
2021/11/15 07:05:47;;;;;;;1.70;1.33;;;;;;;25.89;33.22;97023.22;5041803;28;20028;-38
2021/11/15 07:08:13;;;;;;;4.47;1.70;;;;;;;25.90;33.19;97029.31;5043430;28;20059;-36
2021/11/15 07:10:39;;;;;;;2.00;1.80;;;;;;;25.90;33.39;97024.06;5045277;28;20520;-33
2021/11/15 07:13:04;;;;;;;2.05;1.30;;;;;;;25.90;33.19;97024.06;5042221;28;20024;-33
2021/11/15 07:15:30;;;;;;;1.60;1.50;;;;;;;25.90;33.18;97021.44;5045487;28;20044;-36
2021/11/15 07:17:55;;;;;;;2.80;1.40;;;;;;;25.90;33.19;97022.28;5031944;28;20024;-36
2021/11/15 07:20:21;;;;;;;2.65;1.83;;;;;;;25.90;33.31;97030.16;5044361;28;20029;-35
2021/11/15 07:22:48;;;;;;;1.80;1.50;;;;;;;25.91;33.16;97028.41;5042172;28;20605;-34
2021/11/15 07:25:15;;;;;;;1.85;1.58;;;;;;;25.90;33.11;97024.06;5044809;28;20048;-33
2021/11/15 07:27:40;;;;;;;3.13;1.80;;;;;;;25.90;33.33;97024.91;5040848;28;20833;-39
2021/11/15 07:30:06;;;;;;;3.35;1.83;;;;;;;25.90;33.18;97024.06;5040960;28;20036;-34
2021/11/15 07:32:32;;;;;;;7.28;2.88;;;;;;;25.90;33.20;97018.81;5037872;28;20131;-34
2021/11/15 07:34:57;;;;;;;7.70;3.00;;;;;;;25.90;33.28;97016.19;5038195;28;20078;-38
2021/11/15 07:37:22;;;;;;;5.70;3.38;;;;;;;25.89;33.50;97028.47;5041417;28;20568;-32
2021/11/15 07:39:48;;;;;;;12.05;5.45;;;;;;;25.86;32.75;97023.38;5039539;28;20033;-32
2021/11/15 07:42:15;;;;;;;9.88;3.63;;;;;;;25.85;32.89;97032.16;5038529;28;20029;-35
2021/11/15 07:44:41;;;;;;;7.22;3.25;;;;;;;25.85;33.02;97032.16;5042198;28;20036;-38
2021/11/15 07:47:06;;;;;;;6.65;3.75;;;;;;;25.85;33.08;97033.97;5027701;28;20413;-33
2021/11/15 07:49:32;;;;;;;12.10;6.05;;;;;;;25.83;32.04;97039.28;5020532;28;20059;-31
2021/11/15 07:51:57;;;;;;;12.43;6.28;;;;;;;25.81;31.31;97033.25;5034614;28;20031;-34
2021/11/15 07:54:23;;;;;;;9.52;5.93;;;;;;;25.77;30.82;97040.44;5039309;28;20040;-34
2021/11/15 07:56:49;;;;;;;11.07;5.78;;;;;;;25.73;30.70;97038.88;5022337;28;20033;-36
2021/11/15 07:59:15;;;;;;;8.55;5.40;;;;;;;25.69;30.60;97048.69;5015633;28;20021;-35
2021/11/15 08:01:40;;;;;;;10.57;7.05;;;;;;;25.67;30.32;97050.53;5017922;28;20028;-39
2021/11/15 08:04:06;;;;;;;9.30;6.47;;;;;;;25.63;30.23;97048.13;5018063;28;20036;-33
2021/11/15 08:06:31;;;;;;;9.63;6.38;;;;;;;25.60;29.93;97053.53;5020378;28;20033;-37
2021/11/15 08:08:56;;;;;;;10.18;6.45;;;;;;;25.57;30.08;97050.13;5020972;28;20234;-33
2021/11/15 08:11:24;;;;;;;9.32;6.32;;;;;;;25.54;29.91;97042.38;5024679;28;20032;-34
2021/11/15 08:13:49;;;;;;;11.27;6.70;;;;;;;25.51;29.78;97050.38;4991391;28;20091;-32
2021/11/15 08:16:15;;;;;;;9.43;5.90;;;;;;;25.48;29.89;97053.19;5013422;28;20029;-35
2021/11/15 08:18:41;;;;;;;6.88;4.55;;;;;;;25.48;30.43;97050.56;5021604;28;20024;-34
2021/11/15 08:21:12;;;;;;;6.32;4.15;;;;;;;25.48;31.13;97050.56;5020498;28;20039;-34
2021/11/15 08:23:37;;;;;;;5.73;3.73;;;;;;;25.48;31.46;97050.56;5021917;28;20021;-32
2021/11/15 08:26:26;;;;;;;7.85;4.25;;;;;;;25.51;31.71;97053.00;5014461;28;20029;-32
2021/11/15 08:28:52;;;;;;;9.23;3.88;;;;;;;25.53;31.94;97045.94;5018137;28;20029;-33
2021/11/15 08:31:17;;;;;;;5.57;3.85;;;;;;;25.55;32.09;97049.31;5020892;28;20052;-37
2021/11/15 08:33:42;;;;;;;7.05;3.97;;;;;;;25.57;32.31;97050.13;5024158;28;20685;-35
2021/11/15 08:36:08;;;;;;;11.35;4.28;;;;;;;25.58;32.28;97040.47;5018171;28;20695;-36
2021/11/15 08:38:44;;;;;;;9.27;4.00;;;;;;;25.60;32.46;97043.03;5020369;28;20394;-33
2021/11/15 08:41:11;;;;;;;6.88;3.90;;;;;;;25.61;32.62;97039.47;5036071;28;20051;-33
2021/11/15 08:43:36;;;;;;;7.78;4.03;;;;;;;25.62;32.80;97041.19;5035864;28;20174;-35
2021/11/15 08:46:02;;;;;;;6.20;3.67;;;;;;;25.63;32.65;97054.22;5021755;28;20033;-33
2021/11/15 08:48:27;;;;;;;7.45;3.15;;;;;;;25.64;32.97;97050.69;5016005;28;20095;-34
2021/11/15 08:50:53;;;;;;;7.90;3.97;;;;;;;25.64;32.90;97055.06;5015623;28;20040;-35
2021/11/15 08:53:18;;;;;;;5.75;3.70;;;;;;;25.67;32.78;97049.69;5017333;28;20029;-37
2021/11/15 08:55:43;;;;;;;6.30;3.50;;;;;;;25.67;32.97;97050.53;5019109;28;20036;-33
2021/11/15 08:58:09;;;;;;;8.30;3.90;;;;;;;25.67;33.00;97045.28;5031481;28;20029;-35
2021/11/15 09:00:34;;;;;;;5.85;3.83;;;;;;;25.69;32.27;97050.44;5017365;28;20029;-34
2021/11/15 09:03:00;;;;;;;12.20;10.02;;;;;;;25.59;27.63;97057.06;5016182;28;20029;-34
2021/11/15 09:05:25;;;;;;;14.82;11.40;;;;;;;25.37;25.90;97050.19;5021868;28;20059;-33
2021/11/15 09:07:51;;;;;;;17.55;10.30;;;;;;;25.14;26.77;97054.75;5017469;28;20409;-36
2021/11/15 09:10:17;;;;;;;12.18;8.13;;;;;;;24.98;27.51;97046.75;5015362;28;20043;-34
2021/11/15 09:12:43;;;;;;;11.57;7.63;;;;;;;24.88;28.45;97057.66;5015069;28;20077;-34
2021/11/15 09:15:09;;;;;;;15.20;7.53;;;;;;;24.82;28.64;97052.63;5014125;28;20625;-32
2021/11/15 09:17:37;;;;;;;12.48;7.30;;;;;;;24.80;29.24;97060.56;5028459;28;20079;-34
2021/11/15 09:20:03;;;;;;;9.20;6.93;;;;;;;24.79;29.44;97056.25;5017091;28;20029;-36
2021/11/15 09:22:28;;;;;;;9.80;6.63;;;;;;;24.80;29.73;97055.31;5016491;28;20056;-34
2021/11/15 09:24:54;;;;;;;9.60;6.20;;;;;;;24.83;29.95;97056.97;5017617;28;20048;-36
2021/11/15 09:27:19;;;;;;;8.05;6.00;;;;;;;24.85;30.25;97057.78;5013628;28;20033;-35
2021/11/15 09:29:47;;;;;;;19.58;6.30;;;;;;;24.89;30.13;97053.25;5026995;28;20919;-32
2021/11/15 09:32:13;;;;;;;7.68;5.40;;;;;;;24.92;30.43;97045.25;5034194;28;20033;-37
2021/11/15 09:34:40;;;;;;;16.15;5.93;;;;;;;24.95;30.36;97037.25;5025006;28;20028;-34
2021/11/15 09:37:07;;;;;;;14.60;6.70;;;;;;;24.99;30.61;97040.56;5019986;28;20033;-33
2021/11/15 09:39:33;;;;;;;6.80;5.10;;;;;;;25.01;30.49;97047.44;5022203;28;20479;-34
2021/11/15 09:41:59;;;;;;;13.15;5.68;;;;;;;25.04;30.73;97047.31;5022811;28;20029;-35
2021/11/15 09:44:25;;;;;;;10.80;5.93;;;;;;;25.07;30.69;97053.31;5023286;28;20083;-38
2021/11/15 09:46:50;;;;;;;7.57;5.47;;;;;;;25.10;31.02;97050.56;5022046;28;20028;-35
2021/11/15 09:49:16;;;;;;;10.52;5.43;;;;;;;25.13;31.10;97053.88;5025608;28;20070;-31
2021/11/15 09:51:42;;;;;;;11.48;5.45;;;;;;;25.15;30.99;97054.69;5026826;28;20032;-39
2021/11/15 09:54:07;;;;;;;10.18;5.90;;;;;;;25.18;31.11;97056.31;5042112;28;20029;-32
2021/11/15 09:56:33;;;;;;;9.63;5.20;;;;;;;25.20;31.27;97045.75;5043661;28;20029;-37
2021/11/15 09:58:59;;;;;;;9.40;5.80;;;;;;;25.21;31.48;97053.56;5026467;28;20035;-36
2021/11/15 10:01:24;;;;;;;7.78;5.28;;;;;;;25.25;31.47;97049.84;5023511;28;20028;-34
2021/11/15 10:03:50;;;;;;;7.25;4.97;;;;;;;25.26;31.56;97051.56;5020553;28;20037;-38
2021/11/15 10:06:16;;;;;;;7.75;5.50;;;;;;;25.28;31.66;97051.50;5031435;28;20397;-32
2021/11/15 10:08:48;;;;;;;8.57;5.43;;;;;;;25.31;31.72;97056.56;5028374;28;20406;-34
2021/11/15 10:11:13;;;;;;;13.40;5.68;;;;;;;25.34;32.00;97052.94;5025743;28;20024;-32
2021/11/15 10:13:40;;;;;;;11.70;5.20;;;;;;;25.34;31.98;97048.56;5027007;28;20044;-36
2021/11/15 10:16:18;;;;;;;5.80;4.88;;;;;;;25.37;32.04;97042.31;5028680;28;20044;-35
2021/11/15 10:18:53;;;;;;;5.80;4.63;;;;;;;25.38;31.84;97039.63;5028604;28;20489;-33
2021/11/15 10:21:26;;;;;;;8.20;4.88;;;;;;;25.40;31.94;97044.81;5025545;28;20421;-32
2021/11/15 10:24:14;;;;;;;7.25;4.85;;;;;;;25.41;31.87;97041.25;5026026;28;20054;-38
2021/11/15 10:26:46;;;;;;;12.85;4.78;;;;;;;25.42;31.86;97043.81;5025813;28;20044;-39
2021/11/15 10:29:15;;;;;;;33.72;8.00;;;;;;;25.44;32.06;97043.75;5026274;28;20397;-35
2021/11/15 10:31:46;;;;;;;87.40;15.10;;;;;;;25.45;32.05;97034.94;5021103;28;20021;-35
2021/11/15 10:34:14;;;;;;;75.67;14.33;;;;;;;25.46;32.00;97044.50;5025853;28;20033;-35
2021/11/15 10:36:46;;;;;;;51.03;11.88;;;;;;;25.47;32.13;97040.94;5046364;28;20025;-36
2021/11/15 10:39:11;;;;;;;49.03;11.48;;;;;;;25.48;32.16;97033.94;5025858;28;20536;-38
2021/11/15 10:41:37;;;;;;;40.08;10.60;;;;;;;25.49;32.16;97036.50;5041822;28;20042;-35
2021/11/15 10:44:07;;;;;;;32.83;8.93;;;;;;;25.50;32.13;97025.06;5030073;28;20037;-37
2021/11/15 10:46:35;;;;;;;36.17;10.05;;;;;;;25.50;32.39;97017.19;5026034;28;20025;-34
2021/11/15 10:49:03;;;;;;;30.38;8.57;;;;;;;25.53;32.19;97026.69;5044743;28;20025;-36
2021/11/15 10:51:53;;;;;;;26.38;8.13;;;;;;;25.53;32.30;97022.31;5029299;28;20029;-32
2021/11/15 10:54:55;;;;;;;24.10;8.27;;;;;;;25.56;32.17;97024.78;5026208;28;20021;-37
2021/11/15 10:57:27;;;;;;;22.95;7.43;;;;;;;25.56;32.26;97016.91;5027960;28;20064;-35
2021/11/15 11:00:04;;;;;;;22.40;6.82;;;;;;;25.57;32.38;97023.91;5026370;28;20603;-37
2021/11/15 11:02:29;;;;;;;27.63;7.90;;;;;;;25.59;32.36;97022.97;5028656;28;20091;-36
2021/11/15 11:05:06;;;;;;;22.27;6.97;;;;;;;25.59;32.28;97020.34;5029954;28;20036;-36
2021/11/15 11:07:31;;;;;;;15.65;6.32;;;;;;;25.60;32.18;97017.66;5028835;28;20036;-31
2021/11/15 11:10:00;;;;;;;27.88;7.20;;;;;;;25.60;32.23;97014.16;5038544;28;20030;-35
2021/11/15 11:12:32;;;;;;;17.67;6.60;;;;;;;25.61;32.37;97015.84;5026138;28;20056;-33
2021/11/15 11:15:16;;;;;;;;;;;;;;;25.62;32.33;97015.78;5029838;28;20029;-35
2021/11/15 11:18:03;;;;;;;15.95;6.07;;;;;;;25.62;32.26;97010.53;5026970;28;19917;-32
2021/11/15 11:20:37;;;;;;;16.60;6.38;;;;;;;25.63;32.31;97011.41;5027497;28;20037;-34
2021/11/15 11:23:35;;;;;;;13.35;5.50;;;;;;;25.63;32.52;97006.97;5014418;28;20444;-31
2021/11/15 11:26:12;;;;;;;15.30;6.07;;;;;;;25.63;32.43;97012.22;5031244;28;20040;-33
2021/11/15 11:28:39;;;;;;;12.25;5.28;;;;;;;25.63;32.62;97006.97;5014487;28;20043;-35
2021/11/15 11:31:05;;;;;;;12.90;5.50;;;;;;;25.64;32.63;97007.84;5032914;28;20029;-43